Waelder, Texas
Current Conditions -  °F | °C
As of 11:35 PM on Tuesday 25 Nov 2014 (Local Time) from KT20 Reporting Station
Clear Clear  
Wind Chill: 44°   Ceiling: Unl
Heat Index: 46°   Visibility: 10mi
Dew Point: 34°   Wind: 6mph
Humidity: 62%   Direction: 180°S
Pressure: 30.23"   Gusts: NA
Location:  29.7°N, 97.3°W
Report Text: KT20 260535Z AUTO 18005KT 10SM CLR 08/01 A3023 RMK AO2 T00800011
Loading
Personal Weather Stations






























Interactive Weather Map New forecast layout! Learn more

10-Day Weather Forecast

Advertisements
Track Severe Weather on mobile